This is the latest recevied weather packets stored in our database for station/object FW1079. If no packets are shown the sender has not sent any weather packets the latest 10 day(s).
| Time | Temp. | Humidity | Pressure | Rain* | Wind** | Luminosity | Snow |
|---|---|---|---|---|---|---|---|
| 1777882165 | 21.67° C | 49% | 1019 hPa | 0 mm | - | - | - |
| 1777881562 | 21.11° C | 50% | 1019 hPa | 0 mm | - | - | - |
| 1777880962 | 21.11° C | 52% | 1019 hPa | 0 mm | - | - | - |
| 1777877062 | 16.67° C | 63% | 1019 hPa | 0 mm | - | - | - |
| 1777875862 | 15.56° C | 67% | 1018 hPa | 0 mm | - | - | - |
| 1777871664 | 11.67° C | 76% | 1018 hPa | 0 mm | - | - | - |
| 1777870461 | 10.56° C | 80% | 1018 hPa | 0 mm | - | - | - |
| 1777868961 | 10° C | 81% | 1018 hPa | 0 mm | - | - | - |
| 1777868361 | 10° C | 81% | 1018 hPa | 0 mm | - | - | - |
| 1777864461 | 10° C | 80% | 1018 hPa | 0 mm | - | - | - |
| 1777862061 | 10.56° C | 80% | 1018 hPa | 0 mm | - | - | - |
| 1777861461 | 10.56° C | 80% | 1018 hPa | 0 mm | - | - | - |
| 1777860261 | 11.11° C | 79% | 1018 hPa | 0 mm | - | - | - |
| 1777857862 | 11.67° C | 77% | 1018 hPa | 0 mm | - | - | - |
| 1777856961 | 11.67° C | 78% | 1018 hPa | 0 mm | - | - | - |
| 1777856361 | 11.67° C | 79% | 1018 hPa | 0 mm | - | - | - |
| 1777856061 | 11.11° C | 78% | 1018 hPa | 0 mm | - | - | - |
| 1777855164 | 11.11° C | 79% | 1018 hPa | 0 mm | - | - | - |
| 1777854561 | 11.11° C | 79% | 1018 hPa | 0 mm | - | - | - |
| 1777853965 | 11.67° C | 80% | 1018 hPa | 0 mm | - | - | - |
| 1777848861 | 10.56° C | 79% | 1018 hPa | 0 mm | - | - | - |
| 1777848564 | 10.56° C | 79% | 1018 hPa | 0 mm | - | - | - |
| 1777846764 | 11.11° C | 80% | 1018 hPa | 0 mm | - | - | - |
| 1777841061 | 11.67° C | 76% | 1018 hPa | 0 mm | - | - | - |
| 1777840461 | 11.67° C | 75% | 1018 hPa | 0 mm | - | - | - |
* Rain latest hour (hover to see other rain measurements)
** Current wind speed in m/s (hover to see current wind gust speed)